Romero, Texas
Current Conditions -  °F | °C
As of 2:53 PM on Tuesday 21 Oct 2014 (Local Time) from KDHT Reporting Station
Scattered Clouds Scattered Clouds  
Wind Chill: 75°   Ceiling: Unl
Heat Index: 75°   Visibility: 10mi
Dew Point: 47°   Wind: 17mph
Humidity: 37%   Direction: 200°SSW
Pressure: 30.07"   Gusts: NA
Location:  35.73°N, 102.93°W
Report Text: KDHT 211953Z AUTO 20015KT 10SM SCT055 24/08 A3007 RMK AO2 PK WND 19026/1927 SLP145 T02390083
Loading
Personal Weather Stations






























Interactive Weather Map
Tropical Storm Tracking
New forecast layout! Learn more

10-Day Weather Forecast

Advertisements
Track Severe Weather on mobile